Bly, Oregon
Current Conditions -  °F | °C
As of 8:55 AM on Thursday 23 Oct 2014 (Local Time) from KLKV Reporting Station
Broken Clouds Broken Clouds  
Wind Chill: 40°   Ceiling: 3100
Heat Index: 46°   Visibility: 10mi
Dew Point: 43°   Wind: 14mph
Humidity: 87%   Direction: 190°S
Pressure: 30.07"   Gusts: NA
Location:  42.4°N, 121.04°W
Report Text: KLKV 231555Z AUTO 19012KT 10SM BKN031 08/06 A3007 RMK AO1
Loading
Personal Weather Stations






























Interactive Weather Map
Tropical Storm Tracking
New forecast layout! Learn more

10-Day Weather Forecast

Advertisements
Track Severe Weather on mobile